Latest Weather Observations for East Sale Airport

IDV60801

Issued at 10:42 pm EDT Monday 19 November 2018 (issued every 10 minutes, with the page automatically refreshed every 10 minutes)

About weather observations | Map of weather stations | Latest weather observations for VIC | Other Formats
Station Details ID: 085314 Name: EAST SALE AIRPORT Lat: -38.10 Lon: 147.14 Height: 5.3 m
Data from the previous 72 hours. | See also: Recent months for locations in Victoria
Date/Time
EDT
Temp
°C
App
Temp
°C
Dew
Point
°C
Rel
Hum
%
Delta-T
°C
Wind Press
QNH
hPa
Press
MSL
hPa
Rain since
9am
mm
Dir  Spd
km/h
Gust
km/h
Spd
kts
Gust
kts
19/10:30pm 15.2 14.4 13.9 92 0.7 S 11 13 6 7 1014.1 - 0.0
19/10:00pm 15.4 14.2 13.9 91 0.8 SSE 13 15 7 8 1014.1 - 0.0
19/09:30pm 15.8 14.9 13.8 88 1.1 SSE 11 13 6 7 1014.3 - 0.0
19/09:00pm 16.3 15.8 13.8 85 1.4 SSE 9 13 5 7 1014.3 - 0.0
19/08:30pm 17.3 16.1 14.0 81 1.9 ESE 13 17 7 9 1014.2 - 0.0
19/08:00pm 18.3 16.0 14.0 76 2.5 ESE 19 24 10 13 1013.8 - 0.0
19/07:30pm 19.2 16.5 13.6 70 3.2 ESE 20 26 11 14 1013.5 - 0.0
19/07:00pm 20.0 16.6 13.7 67 3.6 ESE 24 30 13 16 1013.4 - 0.0
19/06:30pm 21.3 17.0 13.2 60 4.6 ESE 28 32 15 17 1013.4 - 0.0
19/06:00pm 22.1 17.8 13.2 57 5.1 E 28 35 15 19 1013.5 - 0.0
19/05:30pm 22.4 17.0 12.1 52 5.8 ESE 32 37 17 20 1013.4 - 0.0
19/05:00pm 22.9 18.0 12.5 52 5.9 E 30 35 16 19 1013.6 - 0.0
19/04:30pm 23.4 18.1 12.4 50 6.3 E 32 39 17 21 1013.4 - 0.0
19/04:00pm 24.2 18.4 11.5 45 7.2 E 33 41 18 22 1013.6 - 0.0
19/03:30pm 24.2 18.5 11.9 46 7.0 E 33 41 18 22 1013.9 - 0.0
19/03:00pm 24.5 18.9 11.5 44 7.3 ESE 32 37 17 20 1014.3 - 0.0
19/02:30pm 25.0 20.3 10.8 41 7.9 ESE 26 33 14 18 1014.8 - 0.0
19/02:00pm 24.5 19.5 10.8 42 7.6 E 28 37 15 20 1015.1 - 0.0
19/01:30pm 24.0 18.8 10.3 42 7.6 E 28 41 15 22 1015.4 - 0.0
19/01:00pm 23.7 19.0 10.7 44 7.2 ESE 26 35 14 19 1015.9 - 0.0
19/12:30pm 23.2 18.8 10.3 44 7.1 ESE 24 35 13 19 1016.4 - 0.0
19/12:00pm 22.8 18.8 10.6 46 6.7 E 22 28 12 15 1016.8 - 0.0
19/11:30am 22.7 18.9 11.1 48 6.4 ESE 22 30 12 16 1017.1 - 0.0
19/11:00am 22.0 18.3 11.4 51 5.9 E 22 28 12 15 1017.5 - 0.0
19/10:30am 21.5 18.2 10.9 51 5.8 E 19 28 10 15 1017.9 - 0.0
19/10:00am 20.0 18.2 12.0 60 4.4 E 13 20 7 11 1018.2 - 0.0
19/09:30am 19.3 17.5 12.1 63 4.0 E 13 19 7 10 1018.4 - 0.0
19/09:00am 18.5 17.7 12.9 70 3.1 ESE 9 20 5 11 1018.6 - 0.0
19/08:30am 16.4 15.7 12.0 75 2.4 ESE 7 11 4 6 1018.8 - 0.0
19/08:00am 14.7 15.3 12.0 84 1.5 CALM 0 6 0 3 1018.9 - 0.0
19/07:30am 13.1 13.7 11.8 92 0.7 CALM 0 0 0 0 1018.9 - 0.0
19/07:00am 11.5 10.7 10.9 96 0.3 NNE 6 6 3 3 1018.6 - 0.0
19/06:30am 10.1 8.7 9.6 97 0.2 NNE 7 9 4 5 1018.4 - 0.0
19/06:00am 9.6 8.2 9.0 96 0.3 ENE 6 9 3 5 1018.3 - 0.0
19/05:30am 10.0 9.9 9.5 97 0.2 CALM 0 0 0 0 1018.1 - 0.0
19/05:00am 9.7 9.5 9.1 96 0.3 CALM 0 0 0 0 1017.9 - 0.0
19/04:30am 10.7 9.7 10.2 97 0.3 NW 6 7 3 4 1017.9 - 0.0
19/04:00am 10.5 9.4 10.0 97 0.3 NNW 6 7 3 4 1018.0 - 0.0
19/03:30am 10.3 8.6 9.7 96 0.3 NNW 9 11 5 6 1018.1 - 0.0
19/03:00am 10.6 8.9 10.0 96 0.3 NNW 9 13 5 7 1018.4 - 0.0
19/02:30am 11.1 9.5 10.2 94 0.5 NNW 9 11 5 6 1018.5 - 0.0
19/02:00am 12.7 11.9 11.6 93 0.6 E 7 9 4 5 1018.7 - 0.0
19/01:30am 12.9 11.9 11.1 89 0.9 ESE 7 9 4 5 1019.1 - 0.0
19/01:00am 13.5 13.2 11.6 88 1.0 ENE 4 6 2 3 1019.5 - 0.0
19/12:30am 14.3 13.6 12.0 86 1.2 N 7 9 4 5 1019.7 - 0.0
19/12:00am 15.4 13.3 12.5 83 1.6 E 15 19 8 10 1019.8 - 0.0
 
Date/Time
EDT
Temp
°C
App
Temp
°C
Dew
Point
°C
Rel
Hum
%
Delta-T
°C
Wind Press
QNH
hPa
Press
MSL
hPa
Rain since
9am
mm
Dir  Spd
km/h
Gust
km/h
Spd
kts
Gust
kts
18/11:30pm 15.9 13.1 12.6 81 1.8 E 19 24 10 13 1020.0 - 0.0
18/11:00pm 15.4 13.5 12.9 85 1.4 ESE 15 19 8 10 1020.3 - 0.0
18/10:30pm 15.1 13.4 12.4 84 1.5 E 13 17 7 9 1020.7 - 0.0
18/10:00pm 15.7 12.9 12.5 81 1.8 E 19 22 10 12 1020.8 - 0.0
18/09:30pm 16.3 12.9 12.5 78 2.1 E 22 30 12 16 1020.9 - 0.0
18/09:00pm 16.2 11.9 12.0 76 2.3 E 26 37 14 20 1020.9 - 0.0
18/08:30pm 16.4 12.0 11.6 73 2.6 E 26 33 14 18 1020.9 - 0.0
18/08:00pm 16.9 11.3 11.4 70 3.0 E 32 41 17 22 1021.0 - 0.0
18/07:30pm 17.6 12.4 11.6 68 3.3 E 30 37 16 20 1021.0 - 0.0
18/07:00pm 18.4 12.9 11.9 66 3.6 E 32 39 17 21 1020.9 - 0.0
18/06:30pm 18.9 13.4 11.9 64 3.9 E 32 39 17 21 1020.8 - 0.0
18/06:00pm 19.6 13.3 12.4 63 4.0 E 37 46 20 25 1020.6 - 0.0
18/05:30pm 19.9 13.4 11.7 59 4.5 E 37 46 20 25 1020.5 - 0.0
18/05:00pm 19.8 13.1 11.0 57 4.8 E 37 44 20 24 1020.7 - 0.0
18/04:30pm 21.0 14.0 11.1 53 5.4 E 39 48 21 26 1020.6 - 0.0
18/04:00pm 20.6 13.1 11.0 54 5.2 E 41 50 22 27 1020.8 - 0.0
18/03:30pm 21.6 15.3 11.0 51 5.8 E 35 44 19 24 1021.0 - 0.0
18/03:00pm 21.4 14.8 9.9 48 6.2 E 35 44 19 24 1021.4 - 0.0
18/02:30pm 21.5 15.1 9.4 46 6.5 E 33 43 18 23 1021.7 - 0.0
18/02:00pm 21.8 15.5 9.7 46 6.5 E 33 44 18 24 1022.0 - 0.0
18/01:30pm 21.8 15.2 8.7 43 6.9 E 33 43 18 23 1022.3 - 0.0
18/01:00pm 21.9 15.3 8.4 42 7.1 E 33 44 18 24 1022.3 - 0.0
18/12:30pm 21.9 15.4 8.1 41 7.2 E 32 41 17 22 1022.5 - 0.0
18/12:00pm 21.5 15.0 8.1 42 7.0 E 32 39 17 21 1022.8 - 0.0
18/11:30am 20.8 15.2 8.8 46 6.3 E 28 39 15 21 1023.2 - 0.0
18/11:00am 20.4 15.4 9.6 50 5.7 E 26 35 14 19 1023.4 - 0.0
18/10:30am 19.4 14.9 9.9 54 5.1 E 24 32 13 17 1023.7 - 0.0
18/10:00am 18.8 15.4 11.1 61 4.2 E 20 26 11 14 1023.9 - 0.0
18/09:30am 17.9 14.6 11.0 64 3.7 E 19 26 10 14 1023.9 - 0.0
18/09:00am 16.9 13.1 9.8 63 3.7 E 20 28 11 15 1024.0 - 0.0
18/08:30am 16.2 13.1 10.3 68 3.1 E 17 20 9 11 1023.8 - 0.0
18/08:00am 13.9 12.3 10.1 78 2.0 NE 9 13 5 7 1023.8 - 0.0
18/07:30am 13.0 11.8 11.6 91 0.7 E 9 11 5 6 1023.6 - 0.0
18/07:00am 11.6 10.9 11.3 98 0.2 SE 6 7 3 4 1023.4 - 0.0
18/06:30am 9.0 8.7 8.7 98 0.1 CALM 0 0 0 0 1023.0 - 0.0
18/06:00am 7.7 5.9 7.3 97 0.2 ESE 6 7 3 4 1022.8 - 0.0
18/05:30am 7.4 6.7 7.0 97 0.2 CALM 0 0 0 0 1022.5 - 0.0
18/05:00am 7.2 6.5 6.8 97 0.2 CALM 0 0 0 0 1022.6 - 0.0
18/04:35am 6.5 4.4 5.9 96 0.3 NNW 6 11 3 6 1022.7 - 0.0
18/04:30am 6.9 4.3 6.3 96 0.3 NNW 9 13 5 7 1022.7 - 0.0
18/04:15am 8.5 6.9 8.1 97 0.2 ESE 6 7 3 4 1022.7 - 0.0
18/04:00am 9.3 7.9 9.0 98 0.1 SE 6 7 3 4 1022.7 - 0.0
18/03:30am 8.6 8.2 8.2 97 0.2 CALM 0 0 0 0 1022.9 - 0.0
18/03:00am 8.1 7.5 7.5 96 0.3 CALM 0 0 0 0 1023.2 - 0.0
18/02:30am 9.9 9.8 9.3 96 0.3 CALM 0 0 0 0 1023.6 - 0.0
18/02:00am 10.7 9.7 10.2 97 0.3 NW 6 7 3 4 1023.9 - 0.0
18/01:30am 10.5 9.2 9.9 96 0.3 NNW 7 7 4 4 1024.2 - 0.0
18/01:00am 11.6 11.9 11.0 96 0.3 CALM 0 0 0 0 1024.5 - 0.0
18/12:30am 11.8 12.2 11.2 96 0.3 CALM 0 4 0 2 1024.8 - 0.0
18/12:00am 11.3 9.8 10.5 95 0.4 SE 9 9 5 5 1024.9 - 0.0
 
Date/Time
EDT
Temp
°C
App
Temp
°C
Dew
Point
°C
Rel
Hum
%
Delta-T
°C
Wind Press
QNH
hPa
Press
MSL
hPa
Rain since
9am
mm
Dir  Spd
km/h
Gust
km/h
Spd
kts
Gust
kts
17/11:30pm 11.8 10.4 10.9 94 0.5 SE 9 13 5 7 1025.0 - 0.0
17/11:00pm 12.3 10.7 11.4 94 0.5 SE 11 13 6 7 1025.2 - 0.0
17/10:30pm 12.9 11.0 11.8 93 0.6 SE 13 15 7 8 1025.1 - 0.0
17/10:00pm 13.2 10.9 11.8 91 0.7 SE 15 17 8 9 1025.1 - 0.0
17/09:30pm 13.6 11.3 11.8 89 1.0 SE 15 15 8 8 1025.1 - 0.0
17/09:00pm 14.1 12.2 11.8 86 1.2 SE 13 15 7 8 1024.8 - 0.0
17/08:30pm 14.7 12.3 11.5 81 1.7 SE 15 19 8 10 1024.4 - 0.0
17/08:00pm 15.8 13.0 11.2 74 2.5 ESE 17 22 9 12 1024.2 - 0.0
17/07:30pm 16.8 13.4 11.3 70 3.0 ESE 20 26 11 14 1023.9 - 0.0
17/07:00pm 17.9 13.7 11.0 64 3.7 ESE 24 30 13 16 1023.7 - 0.0
17/06:30pm 18.2 13.9 10.6 61 4.1 ESE 24 32 13 17 1023.4 - 0.0
17/06:00pm 19.7 16.3 11.2 58 4.6 ESE 20 32 11 17 1023.3 - 0.0
17/05:30pm 19.2 15.1 10.2 56 4.8 ESE 22 33 12 18 1023.1 - 0.0
17/05:00pm 19.8 16.0 9.7 52 5.4 ESE 20 30 11 16 1023.0 - 0.0
17/04:30pm 19.5 14.8 9.4 52 5.3 ESE 24 32 13 17 1023.1 - 0.0
17/04:00pm 19.9 15.0 8.3 47 6.0 ESE 24 32 13 17 1023.0 - 0.0
17/03:30pm 20.4 15.6 9.0 48 6.0 ESE 24 33 13 18 1023.1 - 0.0
17/03:00pm 20.0 15.2 9.0 49 5.8 ESE 24 33 13 18 1023.2 - 0.0
17/02:30pm 20.3 15.9 10.4 53 5.4 ESE 24 41 13 22 1023.3 - 0.0
17/02:00pm 18.8 14.6 9.6 55 4.8 ESE 22 30 12 16 1023.3 - 0.0
17/01:30pm 20.1 16.8 10.8 55 5.1 ESE 19 30 10 16 1023.4 - 0.0
17/01:00pm 20.3 16.9 10.7 54 5.2 ESE 19 30 10 16 1023.6 - 0.0
17/12:30pm 19.3 15.7 9.8 54 5.1 ESE 19 28 10 15 1023.9 - 0.0
17/12:00pm 18.4 15.3 8.9 54 4.9 SE 15 22 8 12 1024.0 - 0.0
17/11:30am 17.8 15.0 8.6 55 4.7 SSE 13 17 7 9 1024.1 - 0.0
17/11:00am 18.3 16.9 9.4 56 4.7 WNW 7 11 4 6 1024.1 - 0.0
17/10:30am 17.9 15.6 9.0 56 4.6 W 11 17 6 9 1024.0 - 0.0
17/10:00am 16.3 13.6 8.8 61 3.8 WNW 13 19 7 10 1024.2 - 0.0
17/09:30am 16.0 13.4 9.4 65 3.4 WNW 13 15 7 8 1024.3 - 0.0
17/09:00am 14.8 12.0 8.7 67 3.1 WNW 13 17 7 9 1024.2 - 0.0
17/08:30am 12.5 8.6 7.2 70 2.6 W 17 22 9 12 1023.9 - 0.0
17/08:00am 11.8 7.4 7.5 75 2.1 WNW 20 26 11 14 1023.8 - 0.0
17/07:30am 10.8 6.9 7.1 78 1.8 W 17 24 9 13 1023.5 - 0.0
17/07:00am 10.1 6.2 7.0 81 1.5 W 17 22 9 12 1023.1 - 0.0
17/06:30am 9.3 6.1 6.7 84 1.2 WNW 13 19 7 10 1022.8 - 0.0
17/06:00am 9.3 5.7 6.7 84 1.2 WNW 15 19 8 10 1022.5 - 0.0
17/05:30am 9.5 5.9 6.6 82 1.4 WNW 15 22 8 12 1022.2 - 0.0
17/05:00am 9.9 5.9 6.8 81 1.4 W 17 24 9 13 1021.9 - 0.0
17/04:30am 10.2 5.7 6.9 80 1.6 W 20 24 11 13 1021.7 - 0.0
17/04:00am 10.1 5.5 6.6 79 1.6 W 20 26 11 14 1021.4 - 0.0
17/03:30am 10.2 6.2 6.7 79 1.6 W 17 24 9 13 1021.4 - 0.0
17/03:00am 10.3 5.9 7.2 81 1.5 W 20 26 11 14 1021.3 - 0.0
17/02:30am 10.4 6.0 7.5 82 1.4 W 20 26 11 14 1021.4 - 0.0
17/02:00am 10.8 7.1 8.0 83 1.4 W 17 22 9 12 1021.7 - 0.0
17/01:30am 11.2 7.9 8.2 82 1.5 W 15 20 8 11 1021.7 - 0.0
17/01:00am 11.9 8.7 8.4 79 1.7 WNW 15 19 8 10 1021.8 - 0.0
17/12:30am 12.4 9.3 8.9 79 1.8 W 15 20 8 11 1021.9 - 0.0
17/12:00am 12.5 10.2 9.0 79 1.7 W 11 15 6 8 1021.9 - 0.0
 
Date/Time
EDT
Temp
°C
App
Temp
°C
Dew
Point
°C
Rel
Hum
%
Delta-T
°C
Wind Press
QNH
hPa
Press
MSL
hPa
Rain since
9am
mm
Dir  Spd
km/h
Gust
km/h
Spd
kts
Gust
kts
16/11:30pm 12.9 9.5 9.2 78 1.9 WSW 17 24 9 13 1021.9 - 0.0
16/11:00pm 12.7 10.2 9.7 82 1.5 SW 13 17 7 9 1021.8 - 0.0

Other Formats:

Comma delimited format used in spreadsheet applications
http://www.bom.gov.au/fwo/IDV60801/IDV60801.95907.axf

JavaScript Object Notation format (JSON) in row-major order
http://www.bom.gov.au/fwo/IDV60801/IDV60801.95907.json